sensor_id;sensor_type;location;lat;lon;timestamp;P1;durP1;ratioP1;P2;durP2;ratioP2
15820;SDS011;8011;51.650;7.240;2022-08-16T03:01:13;4.80;;;3.83;;
15820;SDS011;8011;51.650;7.240;2022-08-16T03:03:40;5.70;;;3.77;;
15820;SDS011;8011;51.650;7.240;2022-08-16T03:06:05;4.17;;;3.57;;
15820;SDS011;8011;51.650;7.240;2022-08-16T03:08:31;5.40;;;3.47;;
15820;SDS011;8011;51.650;7.240;2022-08-16T03:10:57;4.07;;;3.67;;
15820;SDS011;8011;51.650;7.240;2022-08-16T03:13:22;4.27;;;3.40;;
15820;SDS011;8011;51.650;7.240;2022-08-16T03:15:48;3.60;;;3.30;;
15820;SDS011;8011;51.650;7.240;2022-08-16T03:18:14;3.50;;;3.20;;
15820;SDS011;8011;51.650;7.240;2022-08-16T03:20:40;4.13;;;3.60;;
15820;SDS011;8011;51.650;7.240;2022-08-16T03:23:06;4.57;;;3.90;;
15820;SDS011;8011;51.650;7.240;2022-08-16T03:25:33;4.93;;;3.60;;
15820;SDS011;8011;51.650;7.240;2022-08-16T03:27:59;4.17;;;3.77;;
15820;SDS011;8011;51.650;7.240;2022-08-16T03:30:27;4.33;;;3.67;;
15820;SDS011;8011;51.650;7.240;2022-08-16T03:32:54;4.37;;;3.63;;
15820;SDS011;8011;51.650;7.240;2022-08-16T03:35:22;3.60;;;3.30;;
15820;SDS011;8011;51.650;7.240;2022-08-16T03:37:52;4.50;;;3.60;;
15820;SDS011;8011;51.650;7.240;2022-08-16T03:40:20;4.03;;;3.63;;
15820;SDS011;8011;51.650;7.240;2022-08-16T03:42:46;3.80;;;3.27;;
15820;SDS011;8011;51.650;7.240;2022-08-16T03:45:12;3.90;;;3.60;;
15820;SDS011;8011;51.650;7.240;2022-08-16T03:47:38;4.50;;;3.73;;
15820;SDS011;8011;51.650;7.240;2022-08-16T03:50:05;4.00;;;3.53;;
15820;SDS011;8011;51.650;7.240;2022-08-16T03:52:32;3.67;;;3.20;;
15820;SDS011;8011;51.650;7.240;2022-08-16T03:54:59;3.90;;;3.50;;
15820;SDS011;8011;51.650;7.240;2022-08-16T03:57:29;6.60;;;4.17;;
15820;SDS011;8011;51.650;7.240;2022-08-16T03:59:55;4.93;;;3.60;;
15820;SDS011;8011;51.650;7.240;2022-08-16T04:02:21;4.50;;;4.07;;
15820;SDS011;8011;51.650;7.240;2022-08-16T04:04:48;5.33;;;3.93;;
15820;SDS011;8011;51.650;7.240;2022-08-16T04:07:14;4.53;;;4.13;;
15820;SDS011;8011;51.650;7.240;2022-08-16T04:09:40;4.20;;;3.80;;
15820;SDS011;8011;51.650;7.240;2022-08-16T04:12:07;4.53;;;4.13;;
15820;SDS011;8011;51.650;7.240;2022-08-16T04:14:35;5.20;;;3.90;;
15820;SDS011;8011;51.650;7.240;2022-08-16T04:17:01;4.47;;;3.67;;
15820;SDS011;8011;51.650;7.240;2022-08-16T04:19:27;4.60;;;4.13;;
15820;SDS011;8011;51.650;7.240;2022-08-16T04:21:53;5.20;;;3.93;;
15820;SDS011;8011;51.650;7.240;2022-08-16T04:24:19;5.10;;;4.00;;
15820;SDS011;8011;51.650;7.240;2022-08-16T04:26:45;4.17;;;3.60;;
15820;SDS011;8011;51.650;7.240;2022-08-16T04:29:11;4.60;;;4.10;;
15820;SDS011;8011;51.650;7.240;2022-08-16T04:31:38;4.17;;;3.77;;
15820;SDS011;8011;51.650;7.240;2022-08-16T04:34:03;4.30;;;3.90;;
15820;SDS011;8011;51.650;7.240;2022-08-16T04:36:29;5.33;;;3.70;;
15820;SDS011;8011;51.650;7.240;2022-08-16T04:38:55;4.40;;;4.00;;
15820;SDS011;8011;51.650;7.240;2022-08-16T04:41:21;3.90;;;3.60;;
15820;SDS011;8011;51.650;7.240;2022-08-16T04:43:47;5.03;;;3.93;;
15820;SDS011;8011;51.650;7.240;2022-08-16T04:46:15;4.37;;;4.00;;
15820;SDS011;8011;51.650;7.240;2022-08-16T04:48:41;4.73;;;4.00;;
15820;SDS011;8011;51.650;7.240;2022-08-16T04:51:08;4.97;;;3.97;;
15820;SDS011;8011;51.650;7.240;2022-08-16T04:53:35;4.10;;;3.67;;
15820;SDS011;8011;51.650;7.240;2022-08-16T04:56:01;5.73;;;3.87;;
15820;SDS011;8011;51.650;7.240;2022-08-16T04:58:27;4.67;;;3.87;;
15820;SDS011;8011;51.650;7.240;2022-08-16T05:00:53;4.40;;;4.00;;
15820;SDS011;8011;51.650;7.240;2022-08-16T05:03:19;4.90;;;3.80;;
15820;SDS011;8011;51.650;7.240;2022-08-16T05:05:46;5.20;;;4.23;;
15820;SDS011;8011;51.650;7.240;2022-08-16T05:08:12;5.80;;;4.13;;
15820;SDS011;8011;51.650;7.240;2022-08-16T05:10:38;4.57;;;3.87;;
15820;SDS011;8011;51.650;7.240;2022-08-16T05:13:05;4.60;;;4.20;;
15820;SDS011;8011;51.650;7.240;2022-08-16T05:15:31;5.17;;;3.70;;
15820;SDS011;8011;51.650;7.240;2022-08-16T05:17:58;4.60;;;4.17;;
15820;SDS011;8011;51.650;7.240;2022-08-16T05:20:24;5.07;;;4.40;;
15820;SDS011;8011;51.650;7.240;2022-08-16T05:22:51;5.00;;;3.43;;
15820;SDS011;8011;51.650;7.240;2022-08-16T05:25:16;4.90;;;4.37;;
15820;SDS011;8011;51.650;7.240;2022-08-16T05:27:43;6.50;;;4.43;;
15820;SDS011;8011;51.650;7.240;2022-08-16T05:30:10;5.07;;;4.60;;
15820;SDS011;8011;51.650;7.240;2022-08-16T05:32:40;6.23;;;4.30;;
15820;SDS011;8011;51.650;7.240;2022-08-16T05:35:07;5.07;;;4.10;;
15820;SDS011;8011;51.650;7.240;2022-08-16T05:37:35;5.43;;;4.53;;
15820;SDS011;8011;51.650;7.240;2022-08-16T05:40:03;5.23;;;3.70;;
15820;SDS011;8011;51.650;7.240;2022-08-16T05:42:29;4.50;;;4.07;;
15820;SDS011;8011;51.650;7.240;2022-08-16T05:44:55;3.93;;;3.60;;
15820;SDS011;8011;51.650;7.240;2022-08-16T05:47:20;6.50;;;3.70;;
15820;SDS011;8011;51.650;7.240;2022-08-16T05:49:46;5.10;;;4.03;;
15820;SDS011;8011;51.650;7.240;2022-08-16T05:52:12;5.40;;;3.90;;
15820;SDS011;8011;51.650;7.240;2022-08-16T05:54:37;6.03;;;3.90;;
15820;SDS011;8011;51.650;7.240;2022-08-16T05:57:04;5.77;;;4.03;;
15820;SDS011;8011;51.650;7.240;2022-08-16T05:59:29;4.77;;;3.80;;
15820;SDS011;8011;51.650;7.240;2022-08-16T06:01:55;3.97;;;3.23;;
15820;SDS011;8011;51.650;7.240;2022-08-16T06:04:21;6.97;;;3.87;;
15820;SDS011;8011;51.650;7.240;2022-08-16T06:06:47;4.60;;;3.50;;
15820;SDS011;8011;51.650;7.240;2022-08-16T06:09:14;5.47;;;3.30;;
15820;SDS011;8011;51.650;7.240;2022-08-16T06:11:41;4.47;;;4.03;;
15820;SDS011;8011;51.650;7.240;2022-08-16T06:14:07;4.53;;;3.90;;
15820;SDS011;8011;51.650;7.240;2022-08-16T06:16:33;3.97;;;3.40;;
15820;SDS011;8011;51.650;7.240;2022-08-16T06:18:58;4.47;;;3.80;;
15820;SDS011;8011;51.650;7.240;2022-08-16T06:21:24;4.20;;;3.80;;
15820;SDS011;8011;51.650;7.240;2022-08-16T06:23:50;4.77;;;3.70;;
15820;SDS011;8011;51.650;7.240;2022-08-16T06:26:16;5.17;;;3.57;;
15820;SDS011;8011;51.650;7.240;2022-08-16T06:28:42;4.30;;;3.90;;
15820;SDS011;8011;51.650;7.240;2022-08-16T06:31:09;5.00;;;4.50;;
15820;SDS011;8011;51.650;7.240;2022-08-16T06:33:37;5.57;;;4.07;;
15820;SDS011;8011;51.650;7.240;2022-08-16T06:36:03;6.67;;;4.37;;
15820;SDS011;8011;51.650;7.240;2022-08-16T06:38:29;4.83;;;4.33;;
15820;SDS011;8011;51.650;7.240;2022-08-16T06:40:55;5.80;;;4.40;;
15820;SDS011;8011;51.650;7.240;2022-08-16T06:43:21;4.90;;;4.40;;
15820;SDS011;8011;51.650;7.240;2022-08-16T06:45:47;7.07;;;4.83;;
15820;SDS011;8011;51.650;7.240;2022-08-16T06:48:13;5.90;;;4.30;;
15820;SDS011;8011;51.650;7.240;2022-08-16T06:50:39;6.03;;;4.57;;
15820;SDS011;8011;51.650;7.240;2022-08-16T06:53:05;6.33;;;4.33;;
15820;SDS011;8011;51.650;7.240;2022-08-16T06:55:31;6.47;;;4.20;;
15820;SDS011;8011;51.650;7.240;2022-08-16T06:57:59;10.17;;;4.80;;
15820;SDS011;8011;51.650;7.240;2022-08-16T07:00:25;6.23;;;4.20;;
15820;SDS011;8011;51.650;7.240;2022-08-16T07:02:51;10.63;;;4.50;;
15820;SDS011;8011;51.650;7.240;2022-08-16T07:05:17;6.80;;;4.70;;
15820;SDS011;8011;51.650;7.240;2022-08-16T07:07:44;5.17;;;4.20;;
15820;SDS011;8011;51.650;7.240;2022-08-16T07:10:12;4.90;;;4.40;;
15820;SDS011;8011;51.650;7.240;2022-08-16T07:12:39;7.27;;;4.13;;
15820;SDS011;8011;51.650;7.240;2022-08-16T07:15:05;10.53;;;4.67;;
15820;SDS011;8011;51.650;7.240;2022-08-16T07:17:31;5.27;;;4.37;;
15820;SDS011;8011;51.650;7.240;2022-08-16T07:19:58;4.83;;;4.00;;
15820;SDS011;8011;51.650;7.240;2022-08-16T07:22:24;7.67;;;4.60;;
15820;SDS011;8011;51.650;7.240;2022-08-16T07:24:50;6.13;;;4.90;;
15820;SDS011;8011;51.650;7.240;2022-08-16T07:27:16;7.13;;;4.27;;
15820;SDS011;8011;51.650;7.240;2022-08-16T07:29:42;4.87;;;4.47;;
15820;SDS011;8011;51.650;7.240;2022-08-16T07:32:08;8.23;;;4.33;;
15820;SDS011;8011;51.650;7.240;2022-08-16T07:34:34;5.97;;;4.73;;
15820;SDS011;8011;51.650;7.240;2022-08-16T07:37:00;5.50;;;4.20;;
15820;SDS011;8011;51.650;7.240;2022-08-16T07:39:29;5.17;;;4.50;;
15820;SDS011;8011;51.650;7.240;2022-08-16T07:41:55;6.13;;;4.57;;
15820;SDS011;8011;51.650;7.240;2022-08-16T07:44:20;5.17;;;3.97;;
15820;SDS011;8011;51.650;7.240;2022-08-16T07:46:46;6.90;;;4.20;;
15820;SDS011;8011;51.650;7.240;2022-08-16T07:49:12;6.13;;;4.97;;
15820;SDS011;8011;51.650;7.240;2022-08-16T07:51:37;6.23;;;4.33;;
15820;SDS011;8011;51.650;7.240;2022-08-16T07:54:03;4.87;;;4.47;;
15820;SDS011;8011;51.650;7.240;2022-08-16T07:56:30;4.77;;;4.07;;
15820;SDS011;8011;51.650;7.240;2022-08-16T07:58:56;4.50;;;3.90;;
15820;SDS011;8011;51.650;7.240;2022-08-16T08:01:22;5.40;;;4.67;;
15820;SDS011;8011;51.650;7.240;2022-08-16T08:03:48;7.13;;;4.77;;
15820;SDS011;8011;51.650;7.240;2022-08-16T08:06:16;5.73;;;4.57;;
15820;SDS011;8011;51.650;7.240;2022-08-16T08:08:43;5.40;;;4.60;;
15820;SDS011;8011;51.650;7.240;2022-08-16T08:11:09;8.37;;;5.00;;
15820;SDS011;8011;51.650;7.240;2022-08-16T08:13:35;7.07;;;4.40;;
15820;SDS011;8011;51.650;7.240;2022-08-16T08:16:01;5.57;;;4.90;;
15820;SDS011;8011;51.650;7.240;2022-08-16T08:18:26;6.20;;;4.70;;
15820;SDS011;8011;51.650;7.240;2022-08-16T08:20:53;6.40;;;5.60;;
15820;SDS011;8011;51.650;7.240;2022-08-16T08:23:18;7.70;;;5.27;;
15820;SDS011;8011;51.650;7.240;2022-08-16T08:25:45;8.03;;;5.10;;
15820;SDS011;8011;51.650;7.240;2022-08-16T08:28:11;6.25;;;5.10;;
15820;SDS011;8011;51.650;7.240;2022-08-16T08:30:37;7.05;;;4.82;;
15820;SDS011;8011;51.650;7.240;2022-08-16T08:33:03;5.38;;;4.85;;
15820;SDS011;8011;51.650;7.240;2022-08-16T08:35:29;9.10;;;5.28;;
15820;SDS011;8011;51.650;7.240;2022-08-16T08:37:56;8.45;;;5.90;;
15820;SDS011;8011;51.650;7.240;2022-08-16T08:40:24;7.38;;;4.93;;
15820;SDS011;8011;51.650;7.240;2022-08-16T08:42:50;7.45;;;5.40;;
15820;SDS011;8011;51.650;7.240;2022-08-16T08:45:16;5.97;;;4.35;;
15820;SDS011;8011;51.650;7.240;2022-08-16T08:47:42;8.77;;;6.10;;
15820;SDS011;8011;51.650;7.240;2022-08-16T08:50:12;7.68;;;4.68;;
15820;SDS011;8011;51.650;7.240;2022-08-16T08:52:43;6.25;;;5.25;;
15820;SDS011;8011;51.650;7.240;2022-08-16T08:55:10;6.38;;;4.70;;
15820;SDS011;8011;51.650;7.240;2022-08-16T08:57:38;7.13;;;5.32;;
15820;SDS011;8011;51.650;7.240;2022-08-16T09:00:07;7.93;;;5.70;;
15820;SDS011;8011;51.650;7.240;2022-08-16T09:02:33;6.82;;;4.88;;
15820;SDS011;8011;51.650;7.240;2022-08-16T09:04:59;5.47;;;4.93;;
15820;SDS011;8011;51.650;7.240;2022-08-16T09:07:25;5.82;;;4.63;;
15820;SDS011;8011;51.650;7.240;2022-08-16T09:09:50;6.50;;;5.80;;
15820;SDS011;8011;51.650;7.240;2022-08-16T09:12:16;5.85;;;5.30;;
15820;SDS011;8011;51.650;7.240;2022-08-16T09:14:42;5.13;;;4.43;;
15820;SDS011;8011;51.650;7.240;2022-08-16T09:17:09;6.35;;;4.78;;
15820;SDS011;8011;51.650;7.240;2022-08-16T09:19:35;5.47;;;4.57;;
15820;SDS011;8011;51.650;7.240;2022-08-16T09:22:02;7.50;;;4.57;;
15820;SDS011;8011;51.650;7.240;2022-08-16T09:24:28;4.97;;;4.30;;
15820;SDS011;8011;51.650;7.240;2022-08-16T09:26:55;7.68;;;4.25;;
15820;SDS011;8011;51.650;7.240;2022-08-16T09:29:20;5.10;;;4.65;;
15820;SDS011;8011;51.650;7.240;2022-08-16T09:31:47;6.75;;;4.50;;
15820;SDS011;8011;51.650;7.240;2022-08-16T09:34:13;7.07;;;4.63;;
15820;SDS011;8011;51.650;7.240;2022-08-16T09:36:39;8.38;;;4.13;;
15820;SDS011;8011;51.650;7.240;2022-08-16T09:39:05;5.05;;;4.55;;
15820;SDS011;8011;51.650;7.240;2022-08-16T09:41:30;5.03;;;4.20;;
15820;SDS011;8011;51.650;7.240;2022-08-16T09:43:57;6.53;;;4.07;;
15820;SDS011;8011;51.650;7.240;2022-08-16T09:46:24;5.22;;;4.07;;
15820;SDS011;8011;51.650;7.240;2022-08-16T09:48:51;4.38;;;3.97;;
15820;SDS011;8011;51.650;7.240;2022-08-16T09:51:18;6.07;;;4.00;;
15820;SDS011;8011;51.650;7.240;2022-08-16T09:53:45;6.50;;;3.90;;
15820;SDS011;8011;51.650;7.240;2022-08-16T09:56:18;5.65;;;3.83;;
15820;SDS011;8011;51.650;7.240;2022-08-16T09:58:53;6.07;;;4.53;;
15820;SDS011;8011;51.650;7.240;2022-08-16T10:01:19;4.07;;;3.67;;
15820;SDS011;8011;51.650;7.240;2022-08-16T10:03:45;6.65;;;4.18;;
15820;SDS011;8011;51.650;7.240;2022-08-16T10:06:11;4.35;;;3.80;;
15820;SDS011;8011;51.650;7.240;2022-08-16T10:08:37;7.30;;;4.18;;
15820;SDS011;8011;51.650;7.240;2022-08-16T10:11:02;4.20;;;3.83;;
15820;SDS011;8011;51.650;7.240;2022-08-16T10:13:47;4.07;;;3.65;;
15820;SDS011;8011;51.650;7.240;2022-08-16T10:16:13;6.13;;;3.92;;
15820;SDS011;8011;51.650;7.240;2022-08-16T10:18:39;3.90;;;3.50;;
15820;SDS011;8011;51.650;7.240;2022-08-16T10:21:06;6.38;;;4.75;;
15820;SDS011;8011;51.650;7.240;2022-08-16T10:23:33;5.53;;;4.00;;
15820;SDS011;8011;51.650;7.240;2022-08-16T10:25:59;5.13;;;3.75;;
15820;SDS011;8011;51.650;7.240;2022-08-16T10:28:25;5.18;;;4.10;;
15820;SDS011;8011;51.650;7.240;2022-08-16T10:30:52;5.35;;;4.15;;
15820;SDS011;8011;51.650;7.240;2022-08-16T10:33:18;5.22;;;3.95;;
15820;SDS011;8011;51.650;7.240;2022-08-16T10:35:44;5.03;;;4.32;;
15820;SDS011;8011;51.650;7.240;2022-08-16T10:38:10;7.10;;;4.38;;
15820;SDS011;8011;51.650;7.240;2022-08-16T10:40:38;5.30;;;3.80;;
15820;SDS011;8011;51.650;7.240;2022-08-16T10:43:05;4.88;;;3.92;;
15820;SDS011;8011;51.650;7.240;2022-08-16T10:45:31;4.07;;;3.67;;
15820;SDS011;8011;51.650;7.240;2022-08-16T10:47:57;7.78;;;4.22;;
15820;SDS011;8011;51.650;7.240;2022-08-16T10:50:24;5.80;;;3.90;;
15820;SDS011;8011;51.650;7.240;2022-08-16T10:52:51;4.90;;;3.88;;
15820;SDS011;8011;51.650;7.240;2022-08-16T10:55:18;8.80;;;4.20;;
15820;SDS011;8011;51.650;7.240;2022-08-16T10:57:45;5.00;;;3.58;;
15820;SDS011;8011;51.650;7.240;2022-08-16T11:00:12;4.65;;;3.78;;
15820;SDS011;8011;51.650;7.240;2022-08-16T11:02:40;5.53;;;3.95;;
15820;SDS011;8011;51.650;7.240;2022-08-16T11:05:07;5.57;;;3.88;;
15820;SDS011;8011;51.650;7.240;2022-08-16T11:07:39;6.22;;;3.78;;
15820;SDS011;8011;51.650;7.240;2022-08-16T11:10:06;4.25;;;3.38;;
15820;SDS011;8011;51.650;7.240;2022-08-16T11:12:33;4.97;;;3.60;;
15820;SDS011;8011;51.650;7.240;2022-08-16T11:14:59;4.43;;;3.58;;
15820;SDS011;8011;51.650;7.240;2022-08-16T11:17:25;4.85;;;3.67;;
15820;SDS011;8011;51.650;7.240;2022-08-16T11:19:50;4.30;;;3.70;;
15820;SDS011;8011;51.650;7.240;2022-08-16T11:22:16;6.70;;;4.47;;
15820;SDS011;8011;51.650;7.240;2022-08-16T11:24:43;4.38;;;3.83;;
15820;SDS011;8011;51.650;7.240;2022-08-16T11:27:11;4.40;;;3.28;;
15820;SDS011;8011;51.650;7.240;2022-08-16T11:29:39;4.53;;;3.33;;
15820;SDS011;8011;51.650;7.240;2022-08-16T11:32:04;3.95;;;3.42;;
15820;SDS011;8011;51.650;7.240;2022-08-16T11:34:30;6.30;;;4.07;;
15820;SDS011;8011;51.650;7.240;2022-08-16T11:36:57;4.55;;;3.78;;
15820;SDS011;8011;51.650;7.240;2022-08-16T11:39:24;5.65;;;4.00;;
15820;SDS011;8011;51.650;7.240;2022-08-16T11:41:49;4.22;;;3.80;;
15820;SDS011;8011;51.650;7.240;2022-08-16T11:44:15;7.07;;;3.60;;
15820;SDS011;8011;51.650;7.240;2022-08-16T11:46:41;3.53;;;3.22;;
15820;SDS011;8011;51.650;7.240;2022-08-16T11:49:06;3.40;;;3.10;;
15820;SDS011;8011;51.650;7.240;2022-08-16T11:51:32;3.40;;;3.10;;
15820;SDS011;8011;51.650;7.240;2022-08-16T11:53:58;3.85;;;3.55;;
15820;SDS011;8011;51.650;7.240;2022-08-16T11:56:23;4.60;;;3.65;;
15820;SDS011;8011;51.650;7.240;2022-08-16T11:58:49;9.80;;;6.25;;
15820;SDS011;8011;51.650;7.240;2022-08-16T12:01:15;7.13;;;3.97;;
15820;SDS011;8011;51.650;7.240;2022-08-16T12:03:41;6.75;;;4.35;;
15820;SDS011;8011;51.650;7.240;2022-08-16T12:06:14;9.75;;;6.18;;
15820;SDS011;8011;51.650;7.240;2022-08-16T12:08:42;4.70;;;3.47;;
15820;SDS011;8011;51.650;7.240;2022-08-16T12:11:10;4.28;;;3.13;;
15820;SDS011;8011;51.650;7.240;2022-08-16T12:13:37;5.15;;;3.22;;
15820;SDS011;8011;51.650;7.240;2022-08-16T12:16:03;4.47;;;3.28;;
15820;SDS011;8011;51.650;7.240;2022-08-16T12:18:32;5.88;;;3.60;;
15820;SDS011;8011;51.650;7.240;2022-08-16T12:20:58;3.50;;;2.95;;
15820;SDS011;8011;51.650;7.240;2022-08-16T12:23:24;6.45;;;3.33;;
15820;SDS011;8011;51.650;7.240;2022-08-16T12:25:50;3.88;;;3.15;;
15820;SDS011;8011;51.650;7.240;2022-08-16T12:28:16;5.05;;;3.45;;
15820;SDS011;8011;51.650;7.240;2022-08-16T12:30:43;4.90;;;3.35;;
15820;SDS011;8011;51.650;7.240;2022-08-16T12:33:10;3.60;;;3.30;;
15820;SDS011;8011;51.650;7.240;2022-08-16T12:35:41;5.55;;;3.42;;
15820;SDS011;8011;51.650;7.240;2022-08-16T12:38:09;3.47;;;3.17;;
15820;SDS011;8011;51.650;7.240;2022-08-16T12:40:36;6.00;;;3.38;;
15820;SDS011;8011;51.650;7.240;2022-08-16T12:43:06;3.70;;;3.30;;
15820;SDS011;8011;51.650;7.240;2022-08-16T12:45:35;6.88;;;3.40;;
15820;SDS011;8011;51.650;7.240;2022-08-16T12:48:04;6.60;;;3.58;;
15820;SDS011;8011;51.650;7.240;2022-08-16T12:50:50;5.13;;;3.60;;
15820;SDS011;8011;51.650;7.240;2022-08-16T12:53:16;3.50;;;3.08;;
15820;SDS011;8011;51.650;7.240;2022-08-16T12:55:42;4.18;;;3.08;;
15820;SDS011;8011;51.650;7.240;2022-08-16T12:58:09;4.50;;;3.60;;
15820;SDS011;8011;51.650;7.240;2022-08-16T13:00:35;7.38;;;3.85;;
15820;SDS011;8011;51.650;7.240;2022-08-16T13:03:01;3.83;;;3.40;;
15820;SDS011;8011;51.650;7.240;2022-08-16T13:05:28;4.50;;;3.63;;
15820;SDS011;8011;51.650;7.240;2022-08-16T13:07:55;3.83;;;3.20;;
15820;SDS011;8011;51.650;7.240;2022-08-16T13:10:22;4.88;;;3.88;;
15820;SDS011;8011;51.650;7.240;2022-08-16T13:12:52;3.78;;;3.35;;
15820;SDS011;8011;51.650;7.240;2022-08-16T13:15:24;5.15;;;3.80;;
15820;SDS011;8011;51.650;7.240;2022-08-16T13:17:52;6.10;;;3.00;;
15820;SDS011;8011;51.650;7.240;2022-08-16T13:20:20;4.53;;;3.33;;
15820;SDS011;8011;51.650;7.240;2022-08-16T13:23:01;6.20;;;3.85;;
15820;SDS011;8011;51.650;7.240;2022-08-16T13:25:33;5.93;;;3.67;;
15820;SDS011;8011;51.650;7.240;2022-08-16T13:27:59;4.45;;;3.45;;
15820;SDS011;8011;51.650;7.240;2022-08-16T13:30:26;8.50;;;3.97;;
15820;SDS011;8011;51.650;7.240;2022-08-16T13:32:53;5.65;;;3.67;;
15820;SDS011;8011;51.650;7.240;2022-08-16T13:35:20;5.88;;;3.78;;
15820;SDS011;8011;51.650;7.240;2022-08-16T13:37:47;5.07;;;3.60;;
15820;SDS011;8011;51.650;7.240;2022-08-16T13:40:13;7.90;;;3.75;;
15820;SDS011;8011;51.650;7.240;2022-08-16T13:42:39;3.53;;;3.13;;
15820;SDS011;8011;51.650;7.240;2022-08-16T13:45:09;7.05;;;3.95;;
15820;SDS011;8011;51.650;7.240;2022-08-16T13:47:35;4.40;;;3.45;;
15820;SDS011;8011;51.650;7.240;2022-08-16T13:50:02;4.93;;;3.13;;
15820;SDS011;8011;51.650;7.240;2022-08-16T13:52:29;3.25;;;2.95;;
15820;SDS011;8011;51.650;7.240;2022-08-16T13:54:54;4.65;;;3.60;;
15820;SDS011;8011;51.650;7.240;2022-08-16T13:57:21;6.70;;;3.15;;
15820;SDS011;8011;51.650;7.240;2022-08-16T13:59:46;8.55;;;3.70;;
15820;SDS011;8011;51.650;7.240;2022-08-16T14:02:12;5.57;;;3.20;;
15820;SDS011;8011;51.650;7.240;2022-08-16T14:04:39;9.05;;;3.85;;
15820;SDS011;8011;51.650;7.240;2022-08-16T14:07:07;6.38;;;3.30;;
15820;SDS011;8011;51.650;7.240;2022-08-16T14:09:35;10.68;;;3.75;;
15820;SDS011;8011;51.650;7.240;2022-08-16T14:12:02;4.00;;;3.38;;
15820;SDS011;8011;51.650;7.240;2022-08-16T14:14:31;5.45;;;3.30;;
15820;SDS011;8011;51.650;7.240;2022-08-16T14:16:58;5.60;;;3.17;;
15820;SDS011;8011;51.650;7.240;2022-08-16T14:19:25;4.47;;;3.15;;
15820;SDS011;8011;51.650;7.240;2022-08-16T14:21:53;4.13;;;3.13;;
15820;SDS011;8011;51.650;7.240;2022-08-16T14:24:20;3.60;;;3.00;;
15820;SDS011;8011;51.650;7.240;2022-08-16T14:26:46;6.65;;;3.00;;
15820;SDS011;8011;51.650;7.240;2022-08-16T14:29:11;4.25;;;3.15;;
15820;SDS011;8011;51.650;7.240;2022-08-16T14:31:37;3.92;;;3.42;;
15820;SDS011;8011;51.650;7.240;2022-08-16T14:34:04;4.53;;;3.70;;
15820;SDS011;8011;51.650;7.240;2022-08-16T14:36:30;4.50;;;3.40;;
15820;SDS011;8011;51.650;7.240;2022-08-16T14:38:57;4.57;;;3.33;;
15820;SDS011;8011;51.650;7.240;2022-08-16T14:41:24;6.63;;;3.80;;
15820;SDS011;8011;51.650;7.240;2022-08-16T14:43:50;5.63;;;3.80;;
15820;SDS011;8011;51.650;7.240;2022-08-16T14:46:15;4.10;;;3.22;;
15820;SDS011;8011;51.650;7.240;2022-08-16T14:48:41;5.82;;;3.60;;
15820;SDS011;8011;51.650;7.240;2022-08-16T14:51:07;6.53;;;3.45;;
15820;SDS011;8011;51.650;7.240;2022-08-16T14:53:32;5.57;;;3.70;;
15820;SDS011;8011;51.650;7.240;2022-08-16T14:55:59;4.88;;;3.50;;
15820;SDS011;8011;51.650;7.240;2022-08-16T14:58:25;5.55;;;3.80;;
15820;SDS011;8011;51.650;7.240;2022-08-16T15:00:50;4.78;;;3.67;;
15820;SDS011;8011;51.650;7.240;2022-08-16T15:03:17;4.35;;;3.83;;
15820;SDS011;8011;51.650;7.240;2022-08-16T15:05:46;5.25;;;3.50;;
15820;SDS011;8011;51.650;7.240;2022-08-16T15:08:12;4.32;;;3.75;;
15820;SDS011;8011;51.650;7.240;2022-08-16T15:10:37;5.13;;;3.58;;
15820;SDS011;8011;51.650;7.240;2022-08-16T15:13:06;4.15;;;3.50;;
15820;SDS011;8011;51.650;7.240;2022-08-16T15:15:32;4.35;;;3.95;;
15820;SDS011;8011;51.650;7.240;2022-08-16T15:17:59;4.95;;;3.30;;
15820;SDS011;8011;51.650;7.240;2022-08-16T15:20:28;5.40;;;3.80;;
15820;SDS011;8011;51.650;7.240;2022-08-16T15:22:56;4.43;;;3.60;;
15820;SDS011;8011;51.650;7.240;2022-08-16T15:25:26;3.70;;;3.40;;
15820;SDS011;8011;51.650;7.240;2022-08-16T15:27:57;3.47;;;3.17;;
15820;SDS011;8011;51.650;7.240;2022-08-16T15:30:29;3.80;;;3.20;;
15820;SDS011;8011;51.650;7.240;2022-08-16T15:33:00;5.45;;;3.38;;
15820;SDS011;8011;51.650;7.240;2022-08-16T15:35:28;5.07;;;3.40;;
15820;SDS011;8011;51.650;7.240;2022-08-16T15:37:54;3.50;;;3.20;;
15820;SDS011;8011;51.650;7.240;2022-08-16T15:40:19;6.05;;;3.33;;
15820;SDS011;8011;51.650;7.240;2022-08-16T15:42:49;3.72;;;3.13;;
15820;SDS011;8011;51.650;7.240;2022-08-16T15:45:18;4.18;;;3.35;;
15820;SDS011;8011;51.650;7.240;2022-08-16T15:48:05;4.03;;;3.22;;
15820;SDS011;8011;51.650;7.240;2022-08-16T15:50:32;5.15;;;3.33;;
15820;SDS011;8011;51.650;7.240;2022-08-16T15:53:03;3.90;;;3.47;;
15820;SDS011;8011;51.650;7.240;2022-08-16T15:55:33;5.57;;;3.47;;
15820;SDS011;8011;51.650;7.240;2022-08-16T15:57:59;4.13;;;3.40;;
15820;SDS011;8011;51.650;7.240;2022-08-16T16:00:25;4.93;;;3.25;;
15820;SDS011;8011;51.650;7.240;2022-08-16T16:05:32;4.38;;;3.22;;
15820;SDS011;8011;51.650;7.240;2022-08-16T16:08:01;6.38;;;3.40;;
15820;SDS011;8011;51.650;7.240;2022-08-16T16:10:27;6.50;;;3.55;;
15820;SDS011;8011;51.650;7.240;2022-08-16T16:12:54;5.57;;;4.18;;
15820;SDS011;8011;51.650;7.240;2022-08-16T16:15:26;4.13;;;3.35;;
15820;SDS011;8011;51.650;7.240;2022-08-16T16:17:53;4.38;;;3.33;;
15820;SDS011;8011;51.650;7.240;2022-08-16T16:20:20;4.00;;;3.30;;
15820;SDS011;8011;51.650;7.240;2022-08-16T16:22:48;4.70;;;3.30;;
15820;SDS011;8011;51.650;7.240;2022-08-16T16:25:14;6.35;;;3.53;;
15820;SDS011;8011;51.650;7.240;2022-08-16T16:27:42;4.13;;;3.00;;
15820;SDS011;8011;51.650;7.240;2022-08-16T16:30:08;5.75;;;3.33;;
15820;SDS011;8011;51.650;7.240;2022-08-16T16:32:35;3.45;;;3.15;;
15820;SDS011;8011;51.650;7.240;2022-08-16T16:35:02;3.40;;;3.10;;
15820;SDS011;8011;51.650;7.240;2022-08-16T16:37:30;3.75;;;3.20;;
15820;SDS011;8011;51.650;7.240;2022-08-16T16:39:56;4.13;;;3.35;;
15820;SDS011;8011;51.650;7.240;2022-08-16T16:42:22;7.28;;;3.28;;
15820;SDS011;8011;51.650;7.240;2022-08-16T16:44:48;6.07;;;3.00;;
15820;SDS011;8011;51.650;7.240;2022-08-16T16:47:14;3.10;;;2.80;;
15820;SDS011;8011;51.650;7.240;2022-08-16T16:49:39;4.90;;;2.83;;
15820;SDS011;8011;51.650;7.240;2022-08-16T16:52:06;4.60;;;2.80;;
15820;SDS011;8011;51.650;7.240;2022-08-16T16:54:33;6.00;;;3.30;;
15820;SDS011;8011;51.650;7.240;2022-08-16T16:56:59;5.35;;;3.20;;
15820;SDS011;8011;51.650;7.240;2022-08-16T16:59:26;3.05;;;2.75;;
15820;SDS011;8011;51.650;7.240;2022-08-16T17:01:52;3.63;;;3.08;;
15820;SDS011;8011;51.650;7.240;2022-08-16T17:04:19;4.53;;;3.03;;
15820;SDS011;8011;51.650;7.240;2022-08-16T17:06:48;4.57;;;2.90;;
15820;SDS011;8011;51.650;7.240;2022-08-16T17:09:14;4.20;;;3.33;;
15820;SDS011;8011;51.650;7.240;2022-08-16T17:11:41;4.65;;;2.90;;
15820;SDS011;8011;51.650;7.240;2022-08-16T17:14:09;4.45;;;3.28;;
15820;SDS011;8011;51.650;7.240;2022-08-16T17:16:36;4.85;;;3.00;;
15820;SDS011;8011;51.650;7.240;2022-08-16T17:19:02;3.72;;;3.20;;
15820;SDS011;8011;51.650;7.240;2022-08-16T17:21:32;3.80;;;3.20;;
15820;SDS011;8011;51.650;7.240;2022-08-16T17:24:01;3.50;;;3.20;;
15820;SDS011;8011;51.650;7.240;2022-08-16T17:26:27;4.88;;;3.10;;
15820;SDS011;8011;51.650;7.240;2022-08-16T17:28:54;7.97;;;3.33;;
15820;SDS011;8011;51.650;7.240;2022-08-16T17:31:20;3.92;;;3.30;;
15820;SDS011;8011;51.650;7.240;2022-08-16T17:33:45;3.67;;;3.03;;
15820;SDS011;8011;51.650;7.240;2022-08-16T17:36:12;4.57;;;3.05;;
15820;SDS011;8011;51.650;7.240;2022-08-16T17:38:38;4.72;;;3.25;;
15820;SDS011;8011;51.650;7.240;2022-08-16T17:41:04;4.88;;;3.05;;
15820;SDS011;8011;51.650;7.240;2022-08-16T17:43:36;3.75;;;3.13;;
15820;SDS011;8011;51.650;7.240;2022-08-16T17:46:04;7.03;;;3.22;;
15820;SDS011;8011;51.650;7.240;2022-08-16T17:48:31;4.05;;;3.10;;
15820;SDS011;8011;51.650;7.240;2022-08-16T17:50:59;6.60;;;3.17;;
15820;SDS011;8011;51.650;7.240;2022-08-16T17:53:25;3.63;;;2.80;;
15820;SDS011;8011;51.650;7.240;2022-08-16T17:55:51;3.13;;;2.83;;
15820;SDS011;8011;51.650;7.240;2022-08-16T17:58:18;6.13;;;3.50;;
15820;SDS011;8011;51.650;7.240;2022-08-16T18:00:45;4.25;;;3.13;;